sensor_id;sensor_type;location;lat;lon;timestamp;P1;durP1;ratioP1;P2;durP2;ratioP2
19780;SDS011;10050;55.492;13.506;2023-02-26T00:01:42;0.73;;;0.73;;
19780;SDS011;10050;55.492;13.506;2023-02-26T00:04:08;1.80;;;0.60;;
19780;SDS011;10050;55.492;13.506;2023-02-26T00:06:35;0.60;;;0.60;;
19780;SDS011;10050;55.492;13.506;2023-02-26T00:09:03;2.40;;;0.93;;
19780;SDS011;10050;55.492;13.506;2023-02-26T00:11:30;3.30;;;1.20;;
19780;SDS011;10050;55.492;13.506;2023-02-26T00:13:56;1.07;;;0.90;;
19780;SDS011;10050;55.492;13.506;2023-02-26T00:16:31;1.03;;;0.90;;
19780;SDS011;10050;55.492;13.506;2023-02-26T00:19:01;0.97;;;0.93;;
19780;SDS011;10050;55.492;13.506;2023-02-26T00:21:28;0.70;;;0.70;;
19780;SDS011;10050;55.492;13.506;2023-02-26T00:23:55;2.30;;;0.97;;
19780;SDS011;10050;55.492;13.506;2023-02-26T00:26:22;0.60;;;0.60;;
19780;SDS011;10050;55.492;13.506;2023-02-26T00:28:49;2.53;;;0.90;;
19780;SDS011;10050;55.492;13.506;2023-02-26T00:31:16;0.93;;;0.80;;
19780;SDS011;10050;55.492;13.506;2023-02-26T00:33:42;0.90;;;0.90;;
19780;SDS011;10050;55.492;13.506;2023-02-26T00:38:55;1.47;;;0.70;;
19780;SDS011;10050;55.492;13.506;2023-02-26T00:41:31;0.83;;;0.80;;
19780;SDS011;10050;55.492;13.506;2023-02-26T00:43:57;0.80;;;0.80;;
19780;SDS011;10050;55.492;13.506;2023-02-26T00:49:22;1.40;;;0.87;;
19780;SDS011;10050;55.492;13.506;2023-02-26T00:51:57;1.33;;;0.80;;
19780;SDS011;10050;55.492;13.506;2023-02-26T00:54:29;0.70;;;0.70;;
19780;SDS011;10050;55.492;13.506;2023-02-26T00:56:55;0.70;;;0.70;;
19780;SDS011;10050;55.492;13.506;2023-02-26T00:59:23;0.70;;;0.70;;
19780;SDS011;10050;55.492;13.506;2023-02-26T01:01:49;0.97;;;0.60;;
19780;SDS011;10050;55.492;13.506;2023-02-26T01:04:16;0.73;;;0.73;;
19780;SDS011;10050;55.492;13.506;2023-02-26T01:06:46;0.73;;;0.50;;
19780;SDS011;10050;55.492;13.506;2023-02-26T01:11:40;2.43;;;0.80;;
19780;SDS011;10050;55.492;13.506;2023-02-26T01:14:06;1.93;;;0.60;;
19780;SDS011;10050;55.492;13.506;2023-02-26T01:16:35;1.20;;;0.73;;
19780;SDS011;10050;55.492;13.506;2023-02-26T01:19:12;0.70;;;0.70;;
19780;SDS011;10050;55.492;13.506;2023-02-26T01:22:05;1.07;;;0.80;;
19780;SDS011;10050;55.492;13.506;2023-02-26T01:24:37;1.97;;;0.90;;
19780;SDS011;10050;55.492;13.506;2023-02-26T01:27:03;1.07;;;0.80;;
19780;SDS011;10050;55.492;13.506;2023-02-26T01:29:30;1.00;;;1.00;;
19780;SDS011;10050;55.492;13.506;2023-02-26T01:31:59;3.63;;;0.87;;
19780;SDS011;10050;55.492;13.506;2023-02-26T01:34:41;1.43;;;1.40;;
19780;SDS011;10050;55.492;13.506;2023-02-26T01:37:13;4.10;;;2.13;;
19780;SDS011;10050;55.492;13.506;2023-02-26T01:39:46;2.83;;;1.40;;
19780;SDS011;10050;55.492;13.506;2023-02-26T01:42:33;1.57;;;1.47;;
19780;SDS011;10050;55.492;13.506;2023-02-26T01:45:03;2.10;;;1.90;;
19780;SDS011;10050;55.492;13.506;2023-02-26T01:47:48;4.37;;;1.20;;
19780;SDS011;10050;55.492;13.506;2023-02-26T01:50:19;1.33;;;1.23;;
19780;SDS011;10050;55.492;13.506;2023-02-26T01:55:20;1.03;;;1.03;;
19780;SDS011;10050;55.492;13.506;2023-02-26T01:57:47;0.83;;;0.83;;
19780;SDS011;10050;55.492;13.506;2023-02-26T02:00:15;0.97;;;0.97;;
19780;SDS011;10050;55.492;13.506;2023-02-26T02:02:41;1.47;;;1.00;;
19780;SDS011;10050;55.492;13.506;2023-02-26T02:08:07;0.80;;;0.80;;
19780;SDS011;10050;55.492;13.506;2023-02-26T02:10:33;1.57;;;0.60;;
19780;SDS011;10050;55.492;13.506;2023-02-26T02:30:27;1.90;;;1.00;;
19780;SDS011;10050;55.492;13.506;2023-02-26T02:33:13;1.00;;;0.70;;
19780;SDS011;10050;55.492;13.506;2023-02-26T02:35:49;0.60;;;0.60;;
19780;SDS011;10050;55.492;13.506;2023-02-26T02:41:25;0.80;;;0.80;;
19780;SDS011;10050;55.492;13.506;2023-02-26T02:43:54;2.20;;;1.00;;
19780;SDS011;10050;55.492;13.506;2023-02-26T02:46:24;0.93;;;0.90;;
19780;SDS011;10050;55.492;13.506;2023-02-26T02:49:01;0.90;;;0.90;;
19780;SDS011;10050;55.492;13.506;2023-02-26T02:51:31;1.90;;;0.80;;
19780;SDS011;10050;55.492;13.506;2023-02-26T02:54:07;3.47;;;0.90;;
19780;SDS011;10050;55.492;13.506;2023-02-26T02:56:45;1.10;;;1.10;;
19780;SDS011;10050;55.492;13.506;2023-02-26T02:59:19;1.00;;;0.90;;
19780;SDS011;10050;55.492;13.506;2023-02-26T03:01:50;0.93;;;0.67;;
19780;SDS011;10050;55.492;13.506;2023-02-26T03:04:22;1.93;;;0.90;;
19780;SDS011;10050;55.492;13.506;2023-02-26T03:06:47;0.80;;;0.80;;
19780;SDS011;10050;55.492;13.506;2023-02-26T03:09:14;1.80;;;1.10;;
19780;SDS011;10050;55.492;13.506;2023-02-26T03:11:40;0.60;;;0.60;;
19780;SDS011;10050;55.492;13.506;2023-02-26T03:14:06;1.60;;;0.90;;
19780;SDS011;10050;55.492;13.506;2023-02-26T03:22:04;3.03;;;1.10;;
19780;SDS011;10050;55.492;13.506;2023-02-26T03:25:01;0.80;;;0.80;;
19780;SDS011;10050;55.492;13.506;2023-02-26T03:32:36;0.80;;;0.80;;
19780;SDS011;10050;55.492;13.506;2023-02-26T03:36:05;1.17;;;0.70;;
19780;SDS011;10050;55.492;13.506;2023-02-26T03:38:27;0.77;;;0.77;;
19780;SDS011;10050;55.492;13.506;2023-02-26T03:41:22;0.83;;;0.83;;
19780;SDS011;10050;55.492;13.506;2023-02-26T03:44:21;0.87;;;0.87;;
19780;SDS011;10050;55.492;13.506;2023-02-26T03:46:53;1.27;;;0.90;;
19780;SDS011;10050;55.492;13.506;2023-02-26T03:49:27;0.63;;;0.63;;
19780;SDS011;10050;55.492;13.506;2023-02-26T03:51:58;2.07;;;1.70;;
19780;SDS011;10050;55.492;13.506;2023-02-26T03:54:26;5.57;;;2.90;;
19780;SDS011;10050;55.492;13.506;2023-02-26T03:57:31;6.73;;;3.63;;
19780;SDS011;10050;55.492;13.506;2023-02-26T03:59:57;8.73;;;4.80;;
19780;SDS011;10050;55.492;13.506;2023-02-26T04:02:27;10.33;;;4.87;;
19780;SDS011;10050;55.492;13.506;2023-02-26T04:04:58;5.50;;;4.03;;
19780;SDS011;10050;55.492;13.506;2023-02-26T04:07:28;3.07;;;2.13;;
19780;SDS011;10050;55.492;13.506;2023-02-26T04:09:54;1.70;;;1.60;;
19780;SDS011;10050;55.492;13.506;2023-02-26T04:12:23;1.83;;;1.23;;
19780;SDS011;10050;55.492;13.506;2023-02-26T04:14:51;1.33;;;1.10;;
19780;SDS011;10050;55.492;13.506;2023-02-26T04:17:16;1.43;;;1.20;;
19780;SDS011;10050;55.492;13.506;2023-02-26T04:19:42;1.10;;;1.10;;
19780;SDS011;10050;55.492;13.506;2023-02-26T04:22:08;1.10;;;1.10;;
19780;SDS011;10050;55.492;13.506;2023-02-26T04:24:34;1.43;;;0.90;;
19780;SDS011;10050;55.492;13.506;2023-02-26T04:27:00;1.87;;;1.00;;
19780;SDS011;10050;55.492;13.506;2023-02-26T04:29:25;0.97;;;0.90;;
19780;SDS011;10050;55.492;13.506;2023-02-26T04:31:51;0.90;;;0.90;;
19780;SDS011;10050;55.492;13.506;2023-02-26T04:34:17;2.30;;;1.07;;
19780;SDS011;10050;55.492;13.506;2023-02-26T04:36:43;1.33;;;0.70;;
19780;SDS011;10050;55.492;13.506;2023-02-26T04:39:09;0.60;;;0.60;;
19780;SDS011;10050;55.492;13.506;2023-02-26T04:41:35;0.90;;;0.83;;
19780;SDS011;10050;55.492;13.506;2023-02-26T04:44:01;0.80;;;0.80;;
19780;SDS011;10050;55.492;13.506;2023-02-26T04:46:28;2.33;;;1.00;;
19780;SDS011;10050;55.492;13.506;2023-02-26T04:48:53;2.03;;;1.10;;
19780;SDS011;10050;55.492;13.506;2023-02-26T04:51:19;3.60;;;1.30;;
19780;SDS011;10050;55.492;13.506;2023-02-26T04:53:45;2.00;;;1.53;;
19780;SDS011;10050;55.492;13.506;2023-02-26T04:56:10;3.83;;;1.50;;
19780;SDS011;10050;55.492;13.506;2023-02-26T04:58:36;2.53;;;1.20;;
19780;SDS011;10050;55.492;13.506;2023-02-26T05:01:02;3.30;;;1.83;;
19780;SDS011;10050;55.492;13.506;2023-02-26T05:03:28;2.63;;;1.77;;
19780;SDS011;10050;55.492;13.506;2023-02-26T05:05:54;2.17;;;1.20;;
19780;SDS011;10050;55.492;13.506;2023-02-26T05:08:19;0.90;;;0.90;;
19780;SDS011;10050;55.492;13.506;2023-02-26T05:10:45;0.90;;;0.90;;
19780;SDS011;10050;55.492;13.506;2023-02-26T05:13:11;2.77;;;1.10;;
19780;SDS011;10050;55.492;13.506;2023-02-26T05:15:36;0.70;;;0.70;;
19780;SDS011;10050;55.492;13.506;2023-02-26T05:18:02;1.73;;;1.00;;
19780;SDS011;10050;55.492;13.506;2023-02-26T05:20:28;0.80;;;0.80;;
19780;SDS011;10050;55.492;13.506;2023-02-26T05:22:53;0.97;;;0.90;;
19780;SDS011;10050;55.492;13.506;2023-02-26T05:25:19;0.77;;;0.70;;
19780;SDS011;10050;55.492;13.506;2023-02-26T05:27:45;0.93;;;0.80;;
19780;SDS011;10050;55.492;13.506;2023-02-26T05:30:12;0.70;;;0.70;;
19780;SDS011;10050;55.492;13.506;2023-02-26T05:32:38;1.70;;;1.00;;
19780;SDS011;10050;55.492;13.506;2023-02-26T05:35:04;2.77;;;1.00;;
19780;SDS011;10050;55.492;13.506;2023-02-26T05:37:30;1.40;;;1.20;;
19780;SDS011;10050;55.492;13.506;2023-02-26T05:39:56;0.80;;;0.80;;
19780;SDS011;10050;55.492;13.506;2023-02-26T05:42:22;0.67;;;0.67;;
19780;SDS011;10050;55.492;13.506;2023-02-26T05:44:47;0.93;;;0.87;;
19780;SDS011;10050;55.492;13.506;2023-02-26T05:47:13;2.23;;;0.97;;
19780;SDS011;10050;55.492;13.506;2023-02-26T05:49:38;1.13;;;0.87;;
19780;SDS011;10050;55.492;13.506;2023-02-26T05:52:04;0.60;;;0.60;;
19780;SDS011;10050;55.492;13.506;2023-02-26T05:54:30;1.10;;;0.67;;
19780;SDS011;10050;55.492;13.506;2023-02-26T05:56:55;0.70;;;0.70;;
19780;SDS011;10050;55.492;13.506;2023-02-26T05:59:21;0.60;;;0.60;;
19780;SDS011;10050;55.492;13.506;2023-02-26T06:01:47;0.77;;;0.77;;
19780;SDS011;10050;55.492;13.506;2023-02-26T06:04:12;1.87;;;0.70;;
19780;SDS011;10050;55.492;13.506;2023-02-26T06:06:38;1.00;;;1.00;;
19780;SDS011;10050;55.492;13.506;2023-02-26T06:09:04;0.90;;;0.90;;
19780;SDS011;10050;55.492;13.506;2023-02-26T06:11:30;1.33;;;0.80;;
19780;SDS011;10050;55.492;13.506;2023-02-26T06:13:56;0.87;;;0.73;;
19780;SDS011;10050;55.492;13.506;2023-02-26T06:16:22;0.93;;;0.63;;
19780;SDS011;10050;55.492;13.506;2023-02-26T06:18:47;1.90;;;0.90;;
19780;SDS011;10050;55.492;13.506;2023-02-26T06:21:14;1.07;;;0.97;;
19780;SDS011;10050;55.492;13.506;2023-02-26T06:23:40;0.97;;;0.73;;
19780;SDS011;10050;55.492;13.506;2023-02-26T06:26:06;0.80;;;0.80;;
19780;SDS011;10050;55.492;13.506;2023-02-26T06:28:32;1.03;;;0.90;;
19780;SDS011;10050;55.492;13.506;2023-02-26T06:30:58;1.07;;;0.97;;
19780;SDS011;10050;55.492;13.506;2023-02-26T06:33:24;1.20;;;1.10;;
19780;SDS011;10050;55.492;13.506;2023-02-26T06:35:50;3.67;;;1.27;;
19780;SDS011;10050;55.492;13.506;2023-02-26T06:38:16;2.57;;;1.00;;
19780;SDS011;10050;55.492;13.506;2023-02-26T06:40:43;0.90;;;0.90;;
19780;SDS011;10050;55.492;13.506;2023-02-26T06:43:08;0.97;;;0.90;;
19780;SDS011;10050;55.492;13.506;2023-02-26T06:45:34;0.80;;;0.80;;
19780;SDS011;10050;55.492;13.506;2023-02-26T06:48:00;1.23;;;0.90;;
19780;SDS011;10050;55.492;13.506;2023-02-26T06:50:26;2.63;;;1.10;;
19780;SDS011;10050;55.492;13.506;2023-02-26T06:52:52;1.10;;;1.10;;
19780;SDS011;10050;55.492;13.506;2023-02-26T06:55:17;1.30;;;1.20;;
19780;SDS011;10050;55.492;13.506;2023-02-26T06:57:45;1.10;;;1.00;;
19780;SDS011;10050;55.492;13.506;2023-02-26T07:00:11;1.10;;;1.00;;
19780;SDS011;10050;55.492;13.506;2023-02-26T07:02:38;1.13;;;0.83;;
19780;SDS011;10050;55.492;13.506;2023-02-26T07:05:04;0.90;;;0.90;;
19780;SDS011;10050;55.492;13.506;2023-02-26T07:07:30;1.30;;;1.20;;
19780;SDS011;10050;55.492;13.506;2023-02-26T07:09:55;1.90;;;1.07;;
19780;SDS011;10050;55.492;13.506;2023-02-26T07:12:21;1.00;;;1.00;;
19780;SDS011;10050;55.492;13.506;2023-02-26T07:14:46;1.70;;;1.10;;
19780;SDS011;10050;55.492;13.506;2023-02-26T07:17:12;1.30;;;0.87;;
19780;SDS011;10050;55.492;13.506;2023-02-26T07:19:44;0.87;;;0.87;;
19780;SDS011;10050;55.492;13.506;2023-02-26T07:22:13;2.13;;;0.90;;
19780;SDS011;10050;55.492;13.506;2023-02-26T07:24:40;2.47;;;1.07;;
19780;SDS011;10050;55.492;13.506;2023-02-26T07:27:06;1.00;;;0.73;;
19780;SDS011;10050;55.492;13.506;2023-02-26T07:29:32;1.07;;;0.80;;
19780;SDS011;10050;55.492;13.506;2023-02-26T07:31:58;0.87;;;0.87;;
19780;SDS011;10050;55.492;13.506;2023-02-26T07:34:24;0.70;;;0.70;;
19780;SDS011;10050;55.492;13.506;2023-02-26T07:36:49;1.23;;;0.90;;
19780;SDS011;10050;55.492;13.506;2023-02-26T07:39:15;1.60;;;0.90;;
19780;SDS011;10050;55.492;13.506;2023-02-26T07:41:40;0.90;;;0.90;;
19780;SDS011;10050;55.492;13.506;2023-02-26T07:44:06;1.80;;;1.00;;
19780;SDS011;10050;55.492;13.506;2023-02-26T07:46:32;1.07;;;0.70;;
19780;SDS011;10050;55.492;13.506;2023-02-26T07:48:58;1.70;;;0.83;;
19780;SDS011;10050;55.492;13.506;2023-02-26T07:51:23;1.30;;;0.80;;
19780;SDS011;10050;55.492;13.506;2023-02-26T07:53:49;0.70;;;0.60;;
19780;SDS011;10050;55.492;13.506;2023-02-26T07:56:15;0.60;;;0.60;;
19780;SDS011;10050;55.492;13.506;2023-02-26T07:58:40;0.60;;;0.60;;
19780;SDS011;10050;55.492;13.506;2023-02-26T08:01:06;1.70;;;1.10;;
19780;SDS011;10050;55.492;13.506;2023-02-26T08:03:32;0.67;;;0.67;;
19780;SDS011;10050;55.492;13.506;2023-02-26T08:05:57;1.33;;;0.80;;
19780;SDS011;10050;55.492;13.506;2023-02-26T08:08:27;0.90;;;0.90;;
19780;SDS011;10050;55.492;13.506;2023-02-26T08:10:53;2.07;;;1.43;;
19780;SDS011;10050;55.492;13.506;2023-02-26T08:13:18;1.00;;;1.00;;
19780;SDS011;10050;55.492;13.506;2023-02-26T08:15:44;1.73;;;1.63;;
19780;SDS011;10050;55.492;13.506;2023-02-26T08:18:12;4.10;;;3.17;;
19780;SDS011;10050;55.492;13.506;2023-02-26T08:20:38;1.53;;;1.40;;
19780;SDS011;10050;55.492;13.506;2023-02-26T08:23:03;1.80;;;1.70;;
19780;SDS011;10050;55.492;13.506;2023-02-26T08:25:29;1.40;;;1.30;;
19780;SDS011;10050;55.492;13.506;2023-02-26T08:27:55;1.33;;;0.73;;
19780;SDS011;10050;55.492;13.506;2023-02-26T08:30:22;1.00;;;0.90;;
19780;SDS011;10050;55.492;13.506;2023-02-26T08:32:49;1.10;;;0.90;;
19780;SDS011;10050;55.492;13.506;2023-02-26T08:35:14;1.03;;;0.90;;
19780;SDS011;10050;55.492;13.506;2023-02-26T08:37:40;0.70;;;0.70;;
19780;SDS011;10050;55.492;13.506;2023-02-26T08:40:07;0.70;;;0.70;;
19780;SDS011;10050;55.492;13.506;2023-02-26T08:42:35;0.70;;;0.70;;
19780;SDS011;10050;55.492;13.506;2023-02-26T08:45:00;0.63;;;0.63;;
19780;SDS011;10050;55.492;13.506;2023-02-26T08:47:27;0.97;;;0.80;;
19780;SDS011;10050;55.492;13.506;2023-02-26T08:49:53;0.73;;;0.73;;
19780;SDS011;10050;55.492;13.506;2023-02-26T08:52:19;2.03;;;1.37;;
19780;SDS011;10050;55.492;13.506;2023-02-26T08:54:45;1.10;;;0.80;;
19780;SDS011;10050;55.492;13.506;2023-02-26T08:57:10;1.03;;;0.97;;
19780;SDS011;10050;55.492;13.506;2023-02-26T08:59:36;1.63;;;0.80;;
19780;SDS011;10050;55.492;13.506;2023-02-26T09:02:02;0.87;;;0.83;;
19780;SDS011;10050;55.492;13.506;2023-02-26T09:04:27;2.87;;;1.10;;
19780;SDS011;10050;55.492;13.506;2023-02-26T09:06:53;0.60;;;0.60;;
19780;SDS011;10050;55.492;13.506;2023-02-26T09:09:19;1.27;;;0.80;;
19780;SDS011;10050;55.492;13.506;2023-02-26T09:11:45;1.30;;;0.87;;
19780;SDS011;10050;55.492;13.506;2023-02-26T09:14:10;1.00;;;0.80;;
19780;SDS011;10050;55.492;13.506;2023-02-26T09:16:36;1.13;;;1.00;;
19780;SDS011;10050;55.492;13.506;2023-02-26T09:19:03;1.53;;;0.80;;
19780;SDS011;10050;55.492;13.506;2023-02-26T09:21:29;0.70;;;0.70;;
19780;SDS011;10050;55.492;13.506;2023-02-26T09:23:56;0.80;;;0.80;;
19780;SDS011;10050;55.492;13.506;2023-02-26T09:26:21;0.80;;;0.80;;
19780;SDS011;10050;55.492;13.506;2023-02-26T09:28:47;1.60;;;0.80;;
19780;SDS011;10050;55.492;13.506;2023-02-26T09:31:12;0.73;;;0.70;;
19780;SDS011;10050;55.492;13.506;2023-02-26T09:33:38;1.03;;;0.83;;
19780;SDS011;10050;55.492;13.506;2023-02-26T09:36:04;2.67;;;0.80;;
19780;SDS011;10050;55.492;13.506;2023-02-26T09:38:30;0.80;;;0.80;;
19780;SDS011;10050;55.492;13.506;2023-02-26T09:41:05;2.07;;;1.70;;
19780;SDS011;10050;55.492;13.506;2023-02-26T09:43:37;2.70;;;1.60;;
19780;SDS011;10050;55.492;13.506;2023-02-26T09:46:25;2.00;;;1.40;;
19780;SDS011;10050;55.492;13.506;2023-02-26T09:54:59;4.13;;;1.97;;
19780;SDS011;10050;55.492;13.506;2023-02-26T09:57:33;2.83;;;1.67;;
19780;SDS011;10050;55.492;13.506;2023-02-26T10:08:19;6.17;;;2.57;;
19780;SDS011;10050;55.492;13.506;2023-02-26T10:10:49;4.87;;;2.53;;
19780;SDS011;10050;55.492;13.506;2023-02-26T10:16:45;3.43;;;1.83;;
19780;SDS011;10050;55.492;13.506;2023-02-26T10:19:17;3.07;;;1.93;;
19780;SDS011;10050;55.492;13.506;2023-02-26T10:24:21;3.13;;;1.60;;
19780;SDS011;10050;55.492;13.506;2023-02-26T10:26:53;3.47;;;2.53;;
19780;SDS011;10050;55.492;13.506;2023-02-26T10:29:33;4.83;;;2.47;;
19780;SDS011;10050;55.492;13.506;2023-02-26T10:35:03;2.07;;;1.30;;
19780;SDS011;10050;55.492;13.506;2023-02-26T10:40:18;1.37;;;1.00;;
19780;SDS011;10050;55.492;13.506;2023-02-26T10:43:20;0.80;;;0.80;;
19780;SDS011;10050;55.492;13.506;2023-02-26T10:51:16;0.80;;;0.80;;
19780;SDS011;10050;55.492;13.506;2023-02-26T10:53:45;1.40;;;0.80;;
19780;SDS011;10050;55.492;13.506;2023-02-26T10:56:16;0.70;;;0.70;;
19780;SDS011;10050;55.492;13.506;2023-02-26T10:58:47;0.80;;;0.80;;
19780;SDS011;10050;55.492;13.506;2023-02-26T11:01:18;2.03;;;0.93;;
19780;SDS011;10050;55.492;13.506;2023-02-26T11:03:53;1.00;;;0.90;;
19780;SDS011;10050;55.492;13.506;2023-02-26T11:06:31;0.70;;;0.70;;
19780;SDS011;10050;55.492;13.506;2023-02-26T11:09:01;0.60;;;0.60;;
19780;SDS011;10050;55.492;13.506;2023-02-26T11:11:47;0.90;;;0.70;;
19780;SDS011;10050;55.492;13.506;2023-02-26T11:14:21;1.13;;;0.80;;
19780;SDS011;10050;55.492;13.506;2023-02-26T11:16:54;5.23;;;2.90;;
19780;SDS011;10050;55.492;13.506;2023-02-26T11:19:35;2.10;;;1.90;;
19780;SDS011;10050;55.492;13.506;2023-02-26T11:22:03;0.90;;;0.73;;
19780;SDS011;10050;55.492;13.506;2023-02-26T11:24:37;2.60;;;1.50;;
19780;SDS011;10050;55.492;13.506;2023-02-26T11:27:15;0.90;;;0.90;;
19780;SDS011;10050;55.492;13.506;2023-02-26T11:29:52;1.17;;;0.97;;
19780;SDS011;10050;55.492;13.506;2023-02-26T11:32:22;1.10;;;1.00;;
19780;SDS011;10050;55.492;13.506;2023-02-26T11:34:53;1.00;;;0.80;;
19780;SDS011;10050;55.492;13.506;2023-02-26T11:37:19;0.73;;;0.73;;
19780;SDS011;10050;55.492;13.506;2023-02-26T11:39:59;1.00;;;0.80;;
19780;SDS011;10050;55.492;13.506;2023-02-26T11:42:40;0.87;;;0.80;;
19780;SDS011;10050;55.492;13.506;2023-02-26T11:45:19;1.50;;;1.00;;
19780;SDS011;10050;55.492;13.506;2023-02-26T11:47:46;0.77;;;0.70;;
19780;SDS011;10050;55.492;13.506;2023-02-26T11:50:14;1.23;;;0.73;;
19780;SDS011;10050;55.492;13.506;2023-02-26T11:52:45;1.57;;;0.80;;
19780;SDS011;10050;55.492;13.506;2023-02-26T11:55:19;0.87;;;0.87;;
19780;SDS011;10050;55.492;13.506;2023-02-26T11:57:53;0.77;;;0.70;;
19780;SDS011;10050;55.492;13.506;2023-02-26T12:02:49;1.17;;;0.90;;
19780;SDS011;10050;55.492;13.506;2023-02-26T12:05:20;0.90;;;0.90;;
19780;SDS011;10050;55.492;13.506;2023-02-26T12:07:46;0.90;;;0.90;;
19780;SDS011;10050;55.492;13.506;2023-02-26T12:10:24;1.00;;;0.90;;
19780;SDS011;10050;55.492;13.506;2023-02-26T12:15:45;0.80;;;0.80;;
19780;SDS011;10050;55.492;13.506;2023-02-26T12:26:48;1.23;;;0.73;;
19780;SDS011;10050;55.492;13.506;2023-02-26T12:32:26;0.70;;;0.70;;
19780;SDS011;10050;55.492;13.506;2023-02-26T12:35:49;0.83;;;0.70;;
19780;SDS011;10050;55.492;13.506;2023-02-26T12:38:05;0.70;;;0.70;;
19780;SDS011;10050;55.492;13.506;2023-02-26T12:49:03;1.30;;;0.60;;
19780;SDS011;10050;55.492;13.506;2023-02-26T12:51:49;2.43;;;0.70;;
19780;SDS011;10050;55.492;13.506;2023-02-26T12:54:37;2.47;;;1.20;;
19780;SDS011;10050;55.492;13.506;2023-02-26T13:19:29;1.20;;;0.97;;
19780;SDS011;10050;55.492;13.506;2023-02-26T13:21:57;1.40;;;0.70;;
19780;SDS011;10050;55.492;13.506;2023-02-26T13:24:40;0.97;;;0.97;;
19780;SDS011;10050;55.492;13.506;2023-02-26T13:27:10;1.43;;;0.87;;
19780;SDS011;10050;55.492;13.506;2023-02-26T13:29:40;0.80;;;0.80;;
19780;SDS011;10050;55.492;13.506;2023-02-26T13:32:18;1.13;;;0.80;;
19780;SDS011;10050;55.492;13.506;2023-02-26T13:37:23;0.80;;;0.80;;
19780;SDS011;10050;55.492;13.506;2023-02-26T13:39:58;2.13;;;0.87;;
19780;SDS011;10050;55.492;13.506;2023-02-26T13:50:04;0.80;;;0.70;;
19780;SDS011;10050;55.492;13.506;2023-02-26T13:53:00;1.23;;;0.87;;
19780;SDS011;10050;55.492;13.506;2023-02-26T13:55:36;0.70;;;0.70;;
19780;SDS011;10050;55.492;13.506;2023-02-26T13:58:24;2.03;;;0.80;;
19780;SDS011;10050;55.492;13.506;2023-02-26T14:03:35;0.90;;;0.80;;
19780;SDS011;10050;55.492;13.506;2023-02-26T14:09:05;1.37;;;0.70;;
19780;SDS011;10050;55.492;13.506;2023-02-26T14:12:02;0.67;;;0.60;;
19780;SDS011;10050;55.492;13.506;2023-02-26T14:20:19;0.90;;;0.90;;
19780;SDS011;10050;55.492;13.506;2023-02-26T14:22:52;0.83;;;0.70;;
19780;SDS011;10050;55.492;13.506;2023-02-26T14:25:33;0.70;;;0.70;;
19780;SDS011;10050;55.492;13.506;2023-02-26T14:30:49;0.90;;;0.90;;
19780;SDS011;10050;55.492;13.506;2023-02-26T14:33:18;2.07;;;0.80;;
19780;SDS011;10050;55.492;13.506;2023-02-26T14:35:51;0.93;;;0.63;;
19780;SDS011;10050;55.492;13.506;2023-02-26T14:38:33;1.30;;;1.20;;
19780;SDS011;10050;55.492;13.506;2023-02-26T14:41:04;1.03;;;0.83;;
19780;SDS011;10050;55.492;13.506;2023-02-26T14:43:37;1.63;;;0.80;;
19780;SDS011;10050;55.492;13.506;2023-02-26T14:46:06;1.07;;;0.97;;
19780;SDS011;10050;55.492;13.506;2023-02-26T14:48:33;1.03;;;0.83;;
19780;SDS011;10050;55.492;13.506;2023-02-26T14:53:40;2.03;;;0.70;;
19780;SDS011;10050;55.492;13.506;2023-02-26T14:56:30;0.90;;;0.90;;
19780;SDS011;10050;55.492;13.506;2023-02-26T15:15:20;0.77;;;0.73;;
19780;SDS011;10050;55.492;13.506;2023-02-26T15:26:06;1.00;;;0.90;;
19780;SDS011;10050;55.492;13.506;2023-02-26T15:28:38;1.77;;;0.97;;
19780;SDS011;10050;55.492;13.506;2023-02-26T15:31:06;1.43;;;1.30;;
19780;SDS011;10050;55.492;13.506;2023-02-26T15:33:34;3.40;;;1.30;;
19780;SDS011;10050;55.492;13.506;2023-02-26T15:36:03;2.17;;;1.30;;
19780;SDS011;10050;55.492;13.506;2023-02-26T15:38:43;2.90;;;1.23;;
19780;SDS011;10050;55.492;13.506;2023-02-26T15:41:10;2.77;;;1.13;;
19780;SDS011;10050;55.492;13.506;2023-02-26T15:43:38;1.57;;;1.33;;
19780;SDS011;10050;55.492;13.506;2023-02-26T15:46:10;3.50;;;1.20;;
19780;SDS011;10050;55.492;13.506;2023-02-26T15:48:36;2.30;;;1.20;;
19780;SDS011;10050;55.492;13.506;2023-02-26T15:51:06;1.17;;;1.00;;
19780;SDS011;10050;55.492;13.506;2023-02-26T15:53:35;1.10;;;0.97;;
19780;SDS011;10050;55.492;13.506;2023-02-26T15:56:11;2.50;;;1.70;;
19780;SDS011;10050;55.492;13.506;2023-02-26T15:58:47;1.10;;;1.00;;
19780;SDS011;10050;55.492;13.506;2023-02-26T16:01:17;1.60;;;1.17;;
19780;SDS011;10050;55.492;13.506;2023-02-26T16:03:44;1.23;;;1.20;;
19780;SDS011;10050;55.492;13.506;2023-02-26T16:06:18;1.57;;;1.20;;
19780;SDS011;10050;55.492;13.506;2023-02-26T16:08:48;4.83;;;1.23;;
19780;SDS011;10050;55.492;13.506;2023-02-26T16:11:14;3.10;;;0.90;;
19780;SDS011;10050;55.492;13.506;2023-02-26T16:13:41;1.33;;;0.83;;
19780;SDS011;10050;55.492;13.506;2023-02-26T16:16:12;1.20;;;0.90;;
19780;SDS011;10050;55.492;13.506;2023-02-26T16:18:44;0.80;;;0.80;;
19780;SDS011;10050;55.492;13.506;2023-02-26T16:21:13;1.37;;;1.27;;
19780;SDS011;10050;55.492;13.506;2023-02-26T16:23:48;2.43;;;1.10;;
19780;SDS011;10050;55.492;13.506;2023-02-26T16:26:21;1.33;;;1.13;;
19780;SDS011;10050;55.492;13.506;2023-02-26T16:28:52;1.20;;;1.10;;
19780;SDS011;10050;55.492;13.506;2023-02-26T16:31:23;1.63;;;1.20;;
19780;SDS011;10050;55.492;13.506;2023-02-26T16:33:53;1.20;;;1.10;;
19780;SDS011;10050;55.492;13.506;2023-02-26T16:36:19;1.53;;;1.13;;
19780;SDS011;10050;55.492;13.506;2023-02-26T16:38:55;2.33;;;1.50;;
19780;SDS011;10050;55.492;13.506;2023-02-26T16:41:31;1.60;;;1.10;;
19780;SDS011;10050;55.492;13.506;2023-02-26T16:44:00;1.50;;;1.10;;
19780;SDS011;10050;55.492;13.506;2023-02-26T16:46:49;1.23;;;0.90;;
19780;SDS011;10050;55.492;13.506;2023-02-26T16:51:47;2.13;;;1.50;;
19780;SDS011;10050;55.492;13.506;2023-02-26T16:54:24;1.17;;;1.07;;
19780;SDS011;10050;55.492;13.506;2023-02-26T16:57:05;1.60;;;1.50;;
19780;SDS011;10050;55.492;13.506;2023-02-26T16:59:42;2.40;;;1.40;;
19780;SDS011;10050;55.492;13.506;2023-02-26T17:02:17;3.87;;;1.80;;
19780;SDS011;10050;55.492;13.506;2023-02-26T17:04:52;3.17;;;1.30;;
19780;SDS011;10050;55.492;13.506;2023-02-26T17:09:57;2.47;;;1.40;;
19780;SDS011;10050;55.492;13.506;2023-02-26T17:12:43;1.63;;;1.20;;
19780;SDS011;10050;55.492;13.506;2023-02-26T17:15:15;3.70;;;1.63;;
19780;SDS011;10050;55.492;13.506;2023-02-26T17:17:50;2.77;;;1.03;;
19780;SDS011;10050;55.492;13.506;2023-02-26T17:20:20;1.73;;;1.30;;
19780;SDS011;10050;55.492;13.506;2023-02-26T17:22:47;7.80;;;2.17;;
19780;SDS011;10050;55.492;13.506;2023-02-26T17:25:14;5.20;;;2.47;;
19780;SDS011;10050;55.492;13.506;2023-02-26T17:27:41;7.03;;;2.77;;
19780;SDS011;10050;55.492;13.506;2023-02-26T17:30:07;2.97;;;2.10;;
19780;SDS011;10050;55.492;13.506;2023-02-26T17:32:36;3.77;;;1.57;;
19780;SDS011;10050;55.492;13.506;2023-02-26T17:35:01;1.90;;;1.70;;
19780;SDS011;10050;55.492;13.506;2023-02-26T17:37:29;3.00;;;1.63;;
19780;SDS011;10050;55.492;13.506;2023-02-26T17:40:00;2.23;;;1.43;;
19780;SDS011;10050;55.492;13.506;2023-02-26T17:42:26;1.63;;;1.30;;
19780;SDS011;10050;55.492;13.506;2023-02-26T17:44:52;1.23;;;1.20;;
19780;SDS011;10050;55.492;13.506;2023-02-26T17:47:21;1.37;;;1.17;;
19780;SDS011;10050;55.492;13.506;2023-02-26T17:49:49;3.73;;;1.30;;
19780;SDS011;10050;55.492;13.506;2023-02-26T17:52:16;1.93;;;1.10;;